createdAt,value
2019-02-26T00:02:34.894Z,13.88
2019-02-26T00:05:36.348Z,13.81
2019-02-26T00:08:37.927Z,13.75
2019-02-26T00:11:41.032Z,13.69
2019-02-26T00:14:43.081Z,13.62
2019-02-26T00:17:48.359Z,13.56
2019-02-26T00:20:49.160Z,13.50
2019-02-26T00:23:52.646Z,13.44
2019-02-26T00:26:54.095Z,13.44
2019-02-26T00:29:56.188Z,13.31
2019-02-26T00:32:59.936Z,13.31
2019-02-26T00:36:01.064Z,13.25
2019-02-26T00:39:03.467Z,13.19
2019-02-26T00:42:06.837Z,13.13
2019-02-26T00:45:08.317Z,13.06
2019-02-26T00:48:09.707Z,13.06
2019-02-26T00:51:11.172Z,13.00
2019-02-26T00:54:12.528Z,12.94
2019-02-26T00:57:14.174Z,12.88
2019-02-26T01:00:17.199Z,12.81
2019-02-26T01:03:18.611Z,12.75
2019-02-26T01:06:20.055Z,12.75
2019-02-26T01:09:23.121Z,12.69
2019-02-26T01:12:24.759Z,12.63
2019-02-26T01:15:26.172Z,12.56
2019-02-26T01:18:28.971Z,12.56
2019-02-26T01:21:33.547Z,12.50
2019-02-26T01:24:35.483Z,12.44
2019-02-26T01:27:37.983Z,12.37
2019-02-26T01:30:40.381Z,12.37
2019-02-26T01:33:41.784Z,12.37
2019-02-26T01:36:44.928Z,12.31
2019-02-26T01:39:47.232Z,12.25
2019-02-26T01:42:52.142Z,12.19
2019-02-26T01:45:55.237Z,12.19
2019-02-26T01:48:57.578Z,12.13
2019-02-26T01:52:00.362Z,12.06
2019-02-26T01:55:02.803Z,12.00
2019-02-26T01:58:04.351Z,11.94
2019-02-26T02:01:05.899Z,11.88
2019-02-26T02:04:08.787Z,11.88
2019-02-26T02:07:10.516Z,11.88
2019-02-26T02:10:14.062Z,11.81
2019-02-26T02:13:15.508Z,11.75
2019-02-26T02:16:16.885Z,11.69
2019-02-26T02:19:20.319Z,11.63
2019-02-26T02:22:21.536Z,11.63
2019-02-26T02:25:22.907Z,11.63
2019-02-26T02:28:26.231Z,11.56
2019-02-26T02:31:31.255Z,11.50
2019-02-26T02:34:33.093Z,11.50
2019-02-26T02:37:34.519Z,11.44
2019-02-26T02:40:39.878Z,11.38
2019-02-26T02:43:39.134Z,11.38
2019-02-26T02:46:42.488Z,11.38
2019-02-26T02:49:44.382Z,11.31
2019-02-26T02:52:45.867Z,11.25
2019-02-26T02:55:49.465Z,11.31
2019-02-26T02:58:51.530Z,11.19
2019-02-26T03:01:55.362Z,11.12
2019-02-26T03:04:56.749Z,11.12
2019-02-26T03:07:58.268Z,11.06
2019-02-26T03:10:59.660Z,11.00
2019-02-26T03:14:01.083Z,11.00
2019-02-26T03:17:02.521Z,10.94
2019-02-26T03:20:07.553Z,10.88
2019-02-26T03:23:11.967Z,10.94
2019-02-26T03:26:14.789Z,10.81
2019-02-26T03:29:15.409Z,10.81
2019-02-26T03:32:16.781Z,10.81
2019-02-26T03:35:19.511Z,10.75
2019-02-26T03:38:23.500Z,10.69
2019-02-26T03:41:28.283Z,10.69
2019-02-26T03:44:30.267Z,10.63
2019-02-26T03:47:32.165Z,10.56
2019-02-26T03:50:33.786Z,10.56
2019-02-26T03:53:36.287Z,10.50
2019-02-26T03:56:38.381Z,10.50
2019-02-26T03:59:39.820Z,10.44
2019-02-26T04:02:43.330Z,10.44
2019-02-26T04:05:44.523Z,10.38
2019-02-26T04:08:48.595Z,10.38
2019-02-26T04:11:52.934Z,10.31
2019-02-26T04:14:53.635Z,10.25
2019-02-26T04:17:55.006Z,10.25
2019-02-26T04:20:56.774Z,10.19
2019-02-26T04:24:01.002Z,10.13
2019-02-26T04:27:47.142Z,10.06
2019-02-26T04:31:52.187Z,10.06
2019-02-26T04:35:26.674Z,10.00
2019-02-26T04:39:42.347Z,10.00
2019-02-26T04:43:52.483Z,9.94
2019-02-26T04:47:21.966Z,9.94
2019-02-26T04:50:28.683Z,9.88
2019-02-26T04:53:28.730Z,9.81
2019-02-26T04:56:33.457Z,9.81
2019-02-26T04:59:34.911Z,9.75
2019-02-26T05:02:37.205Z,9.69
2019-02-26T05:05:39.634Z,9.69
2019-02-26T05:08:42.902Z,9.63
2019-02-26T05:11:45.269Z,9.56
2019-02-26T05:14:46.610Z,9.56
2019-02-26T05:17:48.050Z,9.56
2019-02-26T05:20:49.385Z,9.50
2019-02-26T05:23:52.306Z,9.50
2019-02-26T05:26:54.168Z,9.44
2019-02-26T05:29:55.596Z,9.38
2019-02-26T05:32:58.260Z,9.38
2019-02-26T05:36:00.288Z,9.31
2019-02-26T05:39:02.288Z,9.31
2019-02-26T05:42:06.324Z,9.31
2019-02-26T05:45:09.307Z,9.25
2019-02-26T05:48:16.196Z,9.19
2019-02-26T05:51:17.180Z,9.19
2019-02-26T05:54:21.654Z,9.13
2019-02-26T05:57:27.638Z,9.13
2019-02-26T06:00:28.496Z,9.13
2019-02-26T06:03:28.759Z,9.06
2019-02-26T06:06:30.275Z,9.06
2019-02-26T06:09:33.755Z,9.00
2019-02-26T06:12:37.704Z,9.00
2019-02-26T06:15:38.490Z,9.00
2019-02-26T06:18:41.959Z,8.94
2019-02-26T06:21:44.750Z,8.94
2019-02-26T06:24:46.266Z,8.94
2019-02-26T06:27:47.749Z,8.88
2019-02-26T06:30:49.152Z,8.88
2019-02-26T06:33:50.801Z,8.88
2019-02-26T06:36:55.874Z,8.88
2019-02-26T06:39:59.708Z,8.88
2019-02-26T06:43:00.584Z,8.88
2019-02-26T06:46:02.667Z,8.88
2019-02-26T06:49:05.431Z,8.88
2019-02-26T06:52:08.338Z,8.94
2019-02-26T06:55:10.783Z,8.94
2019-02-26T06:58:26.677Z,8.94
2019-02-26T07:01:28.078Z,8.94
2019-02-26T07:04:30.122Z,8.94
2019-02-26T07:07:31.642Z,9.00
2019-02-26T07:10:33.686Z,9.00
2019-02-26T07:13:36.717Z,9.00
2019-02-26T07:16:40.383Z,9.00
2019-02-26T07:19:41.968Z,9.06
2019-02-26T07:22:44.057Z,9.06
2019-02-26T07:25:46.601Z,9.13
2019-02-26T07:28:48.750Z,9.13
2019-02-26T07:31:51.890Z,9.19
2019-02-26T07:34:54.790Z,9.19
2019-02-26T07:37:57.149Z,9.25
2019-02-26T07:41:01.930Z,9.38
2019-02-26T07:44:02.786Z,9.50
2019-02-26T07:47:06.220Z,9.56
2019-02-26T07:50:09.698Z,9.69
2019-02-26T07:53:12.242Z,9.75
2019-02-26T07:56:14.294Z,9.88
2019-02-26T07:59:15.754Z,10.00
2019-02-26T08:02:17.156Z,10.19
2019-02-26T08:05:19.322Z,10.50
2019-02-26T08:08:22.020Z,10.63
2019-02-26T08:11:23.416Z,10.88
2019-02-26T08:14:25.659Z,10.94
2019-02-26T08:17:27.198Z,11.06
2019-02-26T08:20:30.437Z,11.25
2019-02-26T08:23:32.810Z,11.38
2019-02-26T08:26:34.314Z,11.50
2019-02-26T08:29:36.260Z,11.63
2019-02-26T08:32:39.181Z,11.69
2019-02-26T08:35:41.008Z,11.88
2019-02-26T08:38:42.409Z,12.13
2019-02-26T08:42:06.964Z,12.31
2019-02-26T08:45:14.834Z,12.44
2019-02-26T08:48:17.335Z,12.63
2019-02-26T08:51:19.681Z,12.81
2019-02-26T08:54:24.297Z,12.88
2019-02-26T08:57:25.406Z,12.94
2019-02-26T09:00:27.860Z,13.06
2019-02-26T09:03:29.360Z,13.13
2019-02-26T09:06:30.846Z,13.31
2019-02-26T09:09:32.813Z,13.44
2019-02-26T09:12:34.514Z,13.56
2019-02-26T09:15:38.481Z,13.69
2019-02-26T09:18:40.562Z,13.75
2019-02-26T09:21:44.627Z,13.94
2019-02-26T09:24:46.866Z,14.19
2019-02-26T09:27:48.509Z,14.38
2019-02-26T09:30:53.746Z,14.50
2019-02-26T09:33:55.047Z,14.69
2019-02-26T09:36:58.239Z,14.81
2019-02-26T09:40:01.871Z,14.94
2019-02-26T09:43:06.134Z,15.06
2019-02-26T09:46:10.144Z,15.13
2019-02-26T09:49:12.595Z,15.31
2019-02-26T09:52:14.191Z,15.50
2019-02-26T09:55:15.832Z,15.88
2019-02-26T09:58:18.582Z,16.06
2019-02-26T10:01:20.477Z,16.25
2019-02-26T10:04:23.800Z,16.44
2019-02-26T10:07:26.133Z,16.62
2019-02-26T10:10:31.092Z,16.81
2019-02-26T10:13:32.448Z,17.00
2019-02-26T10:16:34.199Z,17.19
2019-02-26T10:19:36.513Z,17.37
2019-02-26T10:22:40.454Z,17.56
2019-02-26T10:25:41.858Z,17.75
2019-02-26T10:28:45.637Z,17.94
2019-02-26T10:31:46.447Z,18.19
2019-02-26T10:34:47.862Z,18.37
2019-02-26T10:37:57.053Z,18.62
2019-02-26T10:41:01.627Z,18.81
2019-02-26T10:44:03.529Z,19.06
2019-02-26T10:47:06.305Z,19.31
2019-02-26T10:50:16.204Z,19.56
2019-02-26T10:53:19.830Z,19.81
2019-02-26T10:56:19.925Z,20.06
2019-02-26T10:59:23.521Z,20.31
2019-02-26T11:02:25.703Z,20.56
2019-02-26T11:05:27.842Z,20.81
2019-02-26T11:08:30.520Z,21.00
2019-02-26T11:11:33.339Z,21.25
2019-02-26T11:14:39.100Z,21.50
2019-02-26T11:17:39.818Z,21.81
2019-02-26T11:20:41.683Z,22.13
2019-02-26T11:23:44.024Z,22.44
2019-02-26T11:26:46.789Z,22.75
2019-02-26T11:29:51.900Z,23.06
2019-02-26T11:32:58.605Z,23.38
2019-02-26T11:35:59.624Z,23.62
2019-02-26T11:39:05.036Z,23.94
2019-02-26T11:42:07.831Z,24.25
2019-02-26T11:45:14.346Z,24.63
2019-02-26T11:48:17.923Z,25.37
2019-02-26T11:51:21.230Z,26.69
2019-02-26T11:54:26.168Z,27.87
2019-02-26T11:57:30.206Z,28.81
2019-02-26T12:00:41.765Z,28.12
2019-02-26T12:03:43.930Z,27.44
2019-02-26T12:06:47.059Z,27.19
2019-02-26T12:09:48.730Z,27.31
2019-02-26T12:12:51.513Z,27.62
2019-02-26T12:15:53.590Z,27.81
2019-02-26T12:18:55.499Z,28.19
2019-02-26T12:21:58.102Z,28.12
2019-02-26T12:25:08.332Z,28.38
2019-02-26T12:28:05.415Z,28.44
2019-02-26T12:31:10.001Z,28.56
2019-02-26T12:34:11.840Z,28.50
2019-02-26T12:37:15.835Z,28.38
2019-02-26T12:40:19.368Z,28.50
2019-02-26T12:43:25.152Z,28.94
2019-02-26T12:46:27.515Z,29.31
2019-02-26T12:49:33.291Z,29.63
2019-02-26T12:52:34.510Z,30.00
2019-02-26T12:55:38.459Z,30.00
2019-02-26T12:58:41.134Z,30.00
2019-02-26T13:01:46.347Z,29.44
2019-02-26T13:04:48.054Z,29.75
2019-02-26T13:07:50.305Z,30.12
2019-02-26T13:10:57.746Z,30.25
2019-02-26T13:13:55.440Z,30.94
2019-02-26T13:17:00.112Z,30.62
2019-02-26T13:20:01.885Z,30.81
2019-02-26T13:23:20.740Z,30.62
2019-02-26T13:26:08.876Z,30.94
2019-02-26T13:29:10.661Z,30.81
2019-02-26T13:32:13.679Z,30.62
2019-02-26T13:35:15.533Z,30.12
2019-02-26T13:38:17.161Z,29.25
2019-02-26T13:41:29.653Z,28.56
2019-02-26T13:44:21.827Z,28.50
2019-02-26T13:47:23.347Z,28.44
2019-02-26T13:50:28.834Z,28.69
2019-02-26T13:53:30.390Z,28.81
2019-02-26T13:56:32.139Z,28.87
2019-02-26T13:59:33.894Z,28.75
2019-02-26T14:02:35.493Z,28.94
2019-02-26T14:05:38.698Z,29.00
2019-02-26T14:08:40.434Z,29.00
2019-02-26T14:11:42.212Z,29.00
2019-02-26T14:14:46.202Z,28.75
2019-02-26T14:17:48.885Z,28.81
2019-02-26T14:20:50.636Z,28.94
2019-02-26T14:23:52.158Z,30.00
2019-02-26T14:26:55.208Z,31.12
2019-02-26T14:29:57.361Z,32.25
2019-02-26T14:32:59.123Z,32.75
2019-02-26T14:36:02.759Z,33.31
2019-02-26T14:39:06.067Z,33.25
2019-02-26T14:42:08.927Z,33.13
2019-02-26T14:45:16.577Z,33.31
2019-02-26T14:48:18.376Z,33.31
2019-02-26T14:51:21.663Z,32.75
2019-02-26T14:54:23.835Z,31.56
2019-02-26T14:57:25.768Z,31.19
2019-02-26T15:00:30.140Z,31.56
2019-02-26T15:03:31.810Z,31.00
2019-02-26T15:06:35.820Z,31.37
2019-02-26T15:09:37.511Z,31.31
2019-02-26T15:12:39.259Z,30.94
2019-02-26T15:15:45.366Z,31.44
2019-02-26T15:18:47.247Z,30.12
2019-02-26T15:21:50.548Z,29.12
2019-02-26T15:24:58.817Z,29.19
2019-02-26T15:28:04.669Z,30.37
2019-02-26T15:31:00.767Z,30.37
2019-02-26T15:34:02.719Z,29.37
2019-02-26T15:37:04.554Z,29.12
2019-02-26T15:40:07.472Z,28.81
2019-02-26T15:43:12.145Z,27.87
2019-02-26T15:46:18.337Z,29.06
2019-02-26T15:49:23.210Z,28.62
2019-02-26T15:52:28.992Z,27.44
2019-02-26T15:55:31.016Z,27.44
2019-02-26T15:58:40.872Z,28.56
2019-02-26T16:01:42.842Z,27.25
2019-02-26T16:04:44.583Z,27.37
2019-02-26T16:07:46.338Z,27.25
2019-02-26T16:10:48.253Z,27.19
2019-02-26T16:13:49.885Z,26.75
2019-02-26T16:16:51.694Z,26.19
2019-02-26T16:19:55.074Z,26.06
2019-02-26T16:22:58.548Z,25.88
2019-02-26T16:26:00.723Z,25.00
2019-02-26T16:29:04.063Z,24.87
2019-02-26T16:32:05.982Z,24.56
2019-02-26T16:35:09.494Z,24.69
2019-02-26T16:38:11.732Z,24.44
2019-02-26T16:41:16.610Z,25.62
2019-02-26T16:44:19.412Z,25.75
2019-02-26T16:47:21.107Z,25.56
2019-02-26T16:50:23.982Z,25.44
2019-02-26T16:53:25.442Z,25.31
2019-02-26T16:56:27.030Z,25.19
2019-02-26T16:59:28.690Z,25.00
2019-02-26T17:02:30.211Z,25.06
2019-02-26T17:05:32.059Z,25.00
2019-02-26T17:08:33.621Z,24.81
2019-02-26T17:11:35.279Z,24.63
2019-02-26T17:14:38.365Z,24.37
2019-02-26T17:17:40.076Z,24.19
2019-02-26T17:20:42.959Z,24.06
2019-02-26T17:23:47.070Z,24.00
2019-02-26T17:26:49.855Z,23.87
2019-02-26T17:29:51.674Z,23.69
2019-02-26T17:32:53.640Z,23.62
2019-02-26T17:35:55.215Z,23.50
2019-02-26T17:38:56.726Z,23.38
2019-02-26T17:41:58.226Z,23.19
2019-02-26T17:44:59.695Z,23.12
2019-02-26T17:48:01.443Z,23.00
2019-02-26T17:51:04.207Z,22.94
2019-02-26T17:54:06.284Z,22.81
2019-02-26T17:57:08.601Z,22.75
2019-02-26T18:00:13.154Z,22.62
2019-02-26T18:03:18.030Z,22.56
2019-02-26T18:06:21.563Z,22.44
2019-02-26T18:09:23.007Z,22.37
2019-02-26T18:12:27.661Z,22.37
2019-02-26T18:15:29.339Z,22.25
2019-02-26T18:18:34.181Z,22.19
2019-02-26T18:21:34.591Z,22.13
2019-02-26T18:24:36.292Z,22.06
2019-02-26T18:27:37.837Z,22.00
2019-02-26T18:30:39.812Z,21.94
2019-02-26T18:33:41.579Z,21.87
2019-02-26T18:36:45.425Z,21.81
2019-02-26T18:39:46.957Z,21.75
2019-02-26T18:42:48.517Z,21.69
2019-02-26T18:45:50.082Z,21.62
2019-02-26T18:48:51.621Z,21.56
2019-02-26T18:51:53.209Z,21.44
2019-02-26T18:54:55.139Z,21.37
2019-02-26T18:57:57.599Z,21.31
2019-02-26T19:00:59.235Z,21.25
2019-02-26T19:04:01.106Z,21.25
2019-02-26T19:07:05.264Z,21.19
2019-02-26T19:10:09.573Z,21.12
2019-02-26T19:13:11.322Z,21.06
2019-02-26T19:16:13.088Z,21.00
2019-02-26T19:19:15.018Z,20.94
2019-02-26T19:22:16.619Z,20.88
2019-02-26T19:25:18.251Z,20.81
2019-02-26T19:28:20.201Z,20.75
2019-02-26T19:31:23.519Z,20.75
2019-02-26T19:34:28.830Z,20.62
2019-02-26T19:37:32.073Z,20.56
2019-02-26T19:40:38.978Z,20.50
2019-02-26T19:43:42.764Z,20.44
2019-02-26T19:46:44.466Z,20.37
2019-02-26T19:49:46.071Z,20.25
2019-02-26T19:52:56.439Z,20.19
2019-02-26T19:55:53.097Z,20.12
2019-02-26T19:58:59.124Z,20.06
2019-02-26T20:02:01.454Z,19.94
2019-02-26T20:05:03.187Z,19.87
2019-02-26T20:08:59.730Z,19.81
2019-02-26T20:12:02.671Z,19.75
2019-02-26T20:15:04.276Z,19.62
2019-02-26T20:18:06.466Z,19.56
2019-02-26T20:21:07.999Z,19.50
2019-02-26T20:24:09.606Z,19.44
2019-02-26T20:27:11.242Z,19.37
2019-02-26T20:30:16.080Z,19.25
2019-02-26T20:33:17.879Z,19.19
2019-02-26T20:36:19.844Z,19.12
2019-02-26T20:39:21.420Z,19.06
2019-02-26T20:42:23.118Z,19.00
2019-02-26T20:45:24.984Z,18.94
2019-02-26T20:48:26.542Z,18.87
2019-02-26T20:51:28.143Z,18.81
2019-02-26T20:54:29.647Z,18.75
2019-02-26T20:57:31.145Z,18.62
2019-02-26T21:00:32.956Z,18.56
2019-02-26T21:03:34.490Z,18.50
2019-02-26T21:06:35.976Z,18.44
2019-02-26T21:09:40.780Z,18.37
2019-02-26T21:12:41.811Z,18.31
2019-02-26T21:15:44.698Z,18.25
2019-02-26T21:18:47.481Z,18.19
2019-02-26T21:21:49.605Z,18.12
2019-02-26T21:24:51.106Z,18.06
2019-02-26T21:27:52.994Z,18.00
2019-02-26T21:30:54.960Z,17.87
2019-02-26T21:33:56.553Z,17.81
2019-02-26T21:37:00.071Z,17.75
2019-02-26T21:40:01.211Z,17.69
2019-02-26T21:43:03.620Z,17.62
2019-02-26T21:46:05.204Z,17.56
2019-02-26T21:49:07.535Z,17.50
2019-02-26T21:52:09.788Z,17.44
2019-02-26T21:55:11.566Z,17.37
2019-02-26T21:58:15.033Z,17.31
2019-02-26T22:01:16.838Z,17.25
2019-02-26T22:04:18.273Z,17.19
2019-02-26T22:07:19.894Z,17.12
2019-02-26T22:10:21.371Z,17.06
2019-02-26T22:13:22.878Z,17.00
2019-02-26T22:16:24.423Z,16.94
2019-02-26T22:19:26.105Z,16.87
2019-02-26T22:22:27.656Z,16.87
2019-02-26T22:25:29.398Z,16.81
2019-02-26T22:28:30.877Z,16.75
2019-02-26T22:31:32.322Z,16.69
2019-02-26T22:34:33.737Z,16.62
2019-02-26T22:37:35.616Z,16.56
2019-02-26T22:40:37.124Z,16.50
2019-02-26T22:43:38.620Z,16.44
2019-02-26T22:46:40.112Z,16.37
2019-02-26T22:49:41.693Z,16.31
2019-02-26T22:52:45.460Z,16.25
2019-02-26T22:55:49.572Z,16.25
2019-02-26T22:58:51.319Z,16.19
2019-02-26T23:01:53.622Z,16.12
2019-02-26T23:04:55.123Z,16.06
2019-02-26T23:07:56.706Z,16.00
2019-02-26T23:10:58.851Z,15.94
2019-02-26T23:14:02.640Z,15.88
2019-02-26T23:17:05.173Z,15.81
2019-02-26T23:20:07.591Z,15.81
2019-02-26T23:23:10.409Z,15.75
2019-02-26T23:26:12.451Z,15.69
2019-02-26T23:29:14.098Z,15.63
2019-02-26T23:32:16.048Z,15.56
2019-02-26T23:35:17.916Z,15.50
2019-02-26T23:38:19.422Z,15.44
2019-02-26T23:41:20.970Z,15.44
2019-02-26T23:44:22.430Z,15.38
2019-02-26T23:47:23.955Z,15.31
2019-02-26T23:50:25.363Z,15.25
2019-02-26T23:53:26.745Z,15.25
2019-02-26T23:56:28.317Z,15.19
2019-02-26T23:59:30.101Z,15.13
